sensor_id;sensor_type;location;lat;lon;timestamp;P1;durP1;ratioP1;P2;durP2;ratioP2
39176;SDS011;24904;52.208;21.192;2023-09-19T00:01:10;12.20;;;9.80;;
39176;SDS011;24904;52.208;21.192;2023-09-19T00:06:16;14.20;;;10.10;;
39176;SDS011;24904;52.208;21.192;2023-09-19T00:11:22;12.00;;;9.70;;
39176;SDS011;24904;52.208;21.192;2023-09-19T00:24:03;14.80;;;10.30;;
39176;SDS011;24904;52.208;21.192;2023-09-19T00:29:08;15.20;;;10.00;;
39176;SDS011;24904;52.208;21.192;2023-09-19T00:34:18;13.50;;;9.90;;
39176;SDS011;24904;52.208;21.192;2023-09-19T00:39:23;13.30;;;10.50;;
39176;SDS011;24904;52.208;21.192;2023-09-19T00:44:30;14.20;;;9.80;;
39176;SDS011;24904;52.208;21.192;2023-09-19T00:49:39;18.40;;;10.60;;
39176;SDS011;24904;52.208;21.192;2023-09-19T00:54:44;14.50;;;10.30;;
39176;SDS011;24904;52.208;21.192;2023-09-19T00:59:50;14.40;;;10.40;;
39176;SDS011;24904;52.208;21.192;2023-09-19T01:04:57;14.30;;;10.50;;
39176;SDS011;24904;52.208;21.192;2023-09-19T01:10:03;13.80;;;10.50;;
39176;SDS011;24904;52.208;21.192;2023-09-19T01:20:44;15.00;;;11.10;;
39176;SDS011;24904;52.208;21.192;2023-09-19T01:26:06;12.90;;;10.80;;
39176;SDS011;24904;52.208;21.192;2023-09-19T01:31:21;13.80;;;10.50;;
39176;SDS011;24904;52.208;21.192;2023-09-19T01:36:29;13.40;;;10.10;;
39176;SDS011;24904;52.208;21.192;2023-09-19T01:41:44;15.80;;;11.10;;
39176;SDS011;24904;52.208;21.192;2023-09-19T01:47:08;13.10;;;10.10;;
39176;SDS011;24904;52.208;21.192;2023-09-19T01:52:28;15.10;;;10.70;;
39176;SDS011;24904;52.208;21.192;2023-09-19T01:57:40;21.40;;;11.40;;
39176;SDS011;24904;52.208;21.192;2023-09-19T02:02:53;15.40;;;10.70;;
39176;SDS011;24904;52.208;21.192;2023-09-19T02:08:02;16.30;;;10.70;;
39176;SDS011;24904;52.208;21.192;2023-09-19T02:13:08;14.60;;;10.50;;
39176;SDS011;24904;52.208;21.192;2023-09-19T02:18:13;15.50;;;11.10;;
39176;SDS011;24904;52.208;21.192;2023-09-19T02:23:18;15.30;;;10.40;;
39176;SDS011;24904;52.208;21.192;2023-09-19T02:28:24;14.50;;;11.00;;
39176;SDS011;24904;52.208;21.192;2023-09-19T02:33:31;13.60;;;10.80;;
39176;SDS011;24904;52.208;21.192;2023-09-19T02:38:37;12.50;;;10.10;;
39176;SDS011;24904;52.208;21.192;2023-09-19T02:43:42;14.30;;;11.10;;
39176;SDS011;24904;52.208;21.192;2023-09-19T02:48:49;15.00;;;10.70;;
39176;SDS011;24904;52.208;21.192;2023-09-19T02:53:54;15.90;;;10.30;;
39176;SDS011;24904;52.208;21.192;2023-09-19T02:58:59;15.40;;;10.30;;
39176;SDS011;24904;52.208;21.192;2023-09-19T03:04:05;14.90;;;11.00;;
39176;SDS011;24904;52.208;21.192;2023-09-19T03:18:13;15.80;;;11.10;;
39176;SDS011;24904;52.208;21.192;2023-09-19T03:23:16;16.50;;;10.60;;
39176;SDS011;24904;52.208;21.192;2023-09-19T03:28:20;15.70;;;10.80;;
39176;SDS011;24904;52.208;21.192;2023-09-19T03:33:23;15.00;;;11.10;;
39176;SDS011;24904;52.208;21.192;2023-09-19T03:38:27;15.10;;;10.60;;
39176;SDS011;24904;52.208;21.192;2023-09-19T03:43:32;17.40;;;11.30;;
39176;SDS011;24904;52.208;21.192;2023-09-19T03:48:35;19.40;;;10.90;;
39176;SDS011;24904;52.208;21.192;2023-09-19T03:53:38;12.70;;;10.50;;
39176;SDS011;24904;52.208;21.192;2023-09-19T03:58:41;15.40;;;10.50;;
39176;SDS011;24904;52.208;21.192;2023-09-19T04:03:45;14.70;;;10.70;;
39176;SDS011;24904;52.208;21.192;2023-09-19T04:12:31;13.80;;;10.50;;
39176;SDS011;24904;52.208;21.192;2023-09-19T04:17:36;16.90;;;10.50;;
39176;SDS011;24904;52.208;21.192;2023-09-19T04:22:41;14.60;;;10.80;;
39176;SDS011;24904;52.208;21.192;2023-09-19T04:27:46;13.40;;;10.50;;
39176;SDS011;24904;52.208;21.192;2023-09-19T04:32:51;16.60;;;10.60;;
39176;SDS011;24904;52.208;21.192;2023-09-19T04:37:56;15.90;;;10.60;;
39176;SDS011;24904;52.208;21.192;2023-09-19T04:43:02;20.50;;;11.20;;
39176;SDS011;24904;52.208;21.192;2023-09-19T04:48:07;13.80;;;10.30;;
39176;SDS011;24904;52.208;21.192;2023-09-19T04:53:12;13.80;;;10.40;;
39176;SDS011;24904;52.208;21.192;2023-09-19T04:58:19;14.90;;;11.30;;
39176;SDS011;24904;52.208;21.192;2023-09-19T05:03:24;12.70;;;9.80;;
39176;SDS011;24904;52.208;21.192;2023-09-19T05:08:29;16.10;;;10.10;;
39176;SDS011;24904;52.208;21.192;2023-09-19T05:13:34;15.70;;;10.90;;
39176;SDS011;24904;52.208;21.192;2023-09-19T05:18:39;17.00;;;10.80;;
39176;SDS011;24904;52.208;21.192;2023-09-19T05:23:44;14.20;;;9.80;;
39176;SDS011;24904;52.208;21.192;2023-09-19T05:28:49;19.50;;;11.20;;
39176;SDS011;24904;52.208;21.192;2023-09-19T05:33:54;14.60;;;10.90;;
39176;SDS011;24904;52.208;21.192;2023-09-19T05:38:59;22.20;;;10.60;;
39176;SDS011;24904;52.208;21.192;2023-09-19T05:44:06;13.80;;;10.10;;
39176;SDS011;24904;52.208;21.192;2023-09-19T05:49:11;15.60;;;10.20;;
39176;SDS011;24904;52.208;21.192;2023-09-19T05:54:17;13.70;;;9.90;;
39176;SDS011;24904;52.208;21.192;2023-09-19T05:59:22;20.50;;;10.50;;
39176;SDS011;24904;52.208;21.192;2023-09-19T06:04:27;15.30;;;10.40;;
39176;SDS011;24904;52.208;21.192;2023-09-19T06:09:32;17.20;;;10.20;;
39176;SDS011;24904;52.208;21.192;2023-09-19T06:14:37;17.90;;;9.90;;
39176;SDS011;24904;52.208;21.192;2023-09-19T06:19:43;16.40;;;10.10;;
39176;SDS011;24904;52.208;21.192;2023-09-19T06:24:49;14.10;;;9.40;;
39176;SDS011;24904;52.208;21.192;2023-09-19T06:29:55;14.50;;;9.60;;
39176;SDS011;24904;52.208;21.192;2023-09-19T06:35:00;13.20;;;9.50;;
39176;SDS011;24904;52.208;21.192;2023-09-19T06:40:06;11.70;;;9.20;;
39176;SDS011;24904;52.208;21.192;2023-09-19T06:45:15;21.90;;;9.30;;
39176;SDS011;24904;52.208;21.192;2023-09-19T06:50:21;16.60;;;10.20;;
39176;SDS011;24904;52.208;21.192;2023-09-19T06:55:27;16.40;;;9.70;;
39176;SDS011;24904;52.208;21.192;2023-09-19T07:00:33;13.90;;;9.20;;
39176;SDS011;24904;52.208;21.192;2023-09-19T07:05:38;14.40;;;9.30;;
39176;SDS011;24904;52.208;21.192;2023-09-19T07:10:44;12.00;;;10.30;;
39176;SDS011;24904;52.208;21.192;2023-09-19T07:15:51;11.50;;;9.60;;
39176;SDS011;24904;52.208;21.192;2023-09-19T07:20:58;18.60;;;10.10;;
39176;SDS011;24904;52.208;21.192;2023-09-19T07:26:06;23.50;;;9.90;;
39176;SDS011;24904;52.208;21.192;2023-09-19T07:31:12;15.40;;;9.40;;
39176;SDS011;24904;52.208;21.192;2023-09-19T07:36:17;19.30;;;9.20;;
39176;SDS011;24904;52.208;21.192;2023-09-19T07:41:22;16.40;;;8.60;;
39176;SDS011;24904;52.208;21.192;2023-09-19T07:46:27;14.20;;;10.00;;
39176;SDS011;24904;52.208;21.192;2023-09-19T07:51:32;15.40;;;10.00;;
39176;SDS011;24904;52.208;21.192;2023-09-19T07:56:38;15.70;;;9.50;;
39176;SDS011;24904;52.208;21.192;2023-09-19T08:01:43;15.40;;;10.80;;
39176;SDS011;24904;52.208;21.192;2023-09-19T08:06:49;19.40;;;10.60;;
39176;SDS011;24904;52.208;21.192;2023-09-19T08:11:55;14.80;;;11.00;;
39176;SDS011;24904;52.208;21.192;2023-09-19T08:17:00;18.10;;;10.70;;
39176;SDS011;24904;52.208;21.192;2023-09-19T08:22:07;18.70;;;10.90;;
39176;SDS011;24904;52.208;21.192;2023-09-19T08:27:13;18.40;;;12.30;;
39176;SDS011;24904;52.208;21.192;2023-09-19T08:32:20;16.80;;;10.90;;
39176;SDS011;24904;52.208;21.192;2023-09-19T08:37:27;18.00;;;12.10;;
39176;SDS011;24904;52.208;21.192;2023-09-19T08:42:32;21.20;;;11.90;;
39176;SDS011;24904;52.208;21.192;2023-09-19T08:48:05;24.50;;;12.80;;
39176;SDS011;24904;52.208;21.192;2023-09-19T08:53:24;20.90;;;12.30;;
39176;SDS011;24904;52.208;21.192;2023-09-19T08:58:38;19.90;;;12.20;;
39176;SDS011;24904;52.208;21.192;2023-09-19T09:03:48;18.40;;;13.30;;
39176;SDS011;24904;52.208;21.192;2023-09-19T09:08:54;17.10;;;12.20;;
39176;SDS011;24904;52.208;21.192;2023-09-19T09:13:59;16.60;;;12.90;;
39176;SDS011;24904;52.208;21.192;2023-09-19T09:19:05;19.40;;;14.00;;
39176;SDS011;24904;52.208;21.192;2023-09-19T09:24:28;17.90;;;13.70;;
39176;SDS011;24904;52.208;21.192;2023-09-19T09:29:45;20.90;;;12.70;;
39176;SDS011;24904;52.208;21.192;2023-09-19T09:34:52;16.00;;;11.60;;
39176;SDS011;24904;52.208;21.192;2023-09-19T09:39:58;18.20;;;11.60;;
39176;SDS011;24904;52.208;21.192;2023-09-19T09:45:22;17.60;;;9.90;;
39176;SDS011;24904;52.208;21.192;2023-09-19T09:50:39;15.60;;;9.50;;
39176;SDS011;24904;52.208;21.192;2023-09-19T09:55:59;10.50;;;8.30;;
39176;SDS011;24904;52.208;21.192;2023-09-19T10:01:07;9.10;;;7.20;;
39176;SDS011;24904;52.208;21.192;2023-09-19T10:06:17;7.60;;;5.40;;
39176;SDS011;24904;52.208;21.192;2023-09-19T10:11:34;8.50;;;6.00;;
39176;SDS011;24904;52.208;21.192;2023-09-19T10:16:43;14.20;;;7.30;;
39176;SDS011;24904;52.208;21.192;2023-09-19T10:21:51;9.80;;;6.20;;
39176;SDS011;24904;52.208;21.192;2023-09-19T10:27:00;13.40;;;7.10;;
39176;SDS011;24904;52.208;21.192;2023-09-19T10:32:06;16.00;;;7.90;;
39176;SDS011;24904;52.208;21.192;2023-09-19T10:37:12;15.40;;;8.20;;
39176;SDS011;24904;52.208;21.192;2023-09-19T10:42:19;16.10;;;8.10;;
39176;SDS011;24904;52.208;21.192;2023-09-19T10:47:26;12.60;;;7.30;;
39176;SDS011;24904;52.208;21.192;2023-09-19T10:52:32;12.50;;;7.60;;
39176;SDS011;24904;52.208;21.192;2023-09-19T10:57:42;12.50;;;7.00;;
39176;SDS011;24904;52.208;21.192;2023-09-19T11:08:32;11.90;;;6.90;;
39176;SDS011;24904;52.208;21.192;2023-09-19T11:30:50;15.10;;;8.70;;
39176;SDS011;24904;52.208;21.192;2023-09-19T11:36:03;11.10;;;7.90;;
39176;SDS011;24904;52.208;21.192;2023-09-19T11:46:52;12.90;;;9.40;;
39176;SDS011;24904;52.208;21.192;2023-09-19T11:55:30;13.00;;;8.90;;
39176;SDS011;24904;52.208;21.192;2023-09-19T12:00:35;15.90;;;9.30;;
39176;SDS011;24904;52.208;21.192;2023-09-19T12:05:42;12.00;;;9.20;;
39176;SDS011;24904;52.208;21.192;2023-09-19T12:10:46;16.50;;;9.30;;
39176;SDS011;24904;52.208;21.192;2023-09-19T12:15:50;14.20;;;9.60;;
39176;SDS011;24904;52.208;21.192;2023-09-19T12:20:54;16.20;;;9.50;;
39176;SDS011;24904;52.208;21.192;2023-09-19T12:25:59;12.50;;;9.20;;
39176;SDS011;24904;52.208;21.192;2023-09-19T12:31:13;13.30;;;9.40;;
39176;SDS011;24904;52.208;21.192;2023-09-19T12:36:22;10.80;;;8.60;;
39176;SDS011;24904;52.208;21.192;2023-09-19T12:41:31;13.30;;;7.70;;
39176;SDS011;24904;52.208;21.192;2023-09-19T12:46:34;10.40;;;8.10;;
39176;SDS011;24904;52.208;21.192;2023-09-19T12:51:37;9.30;;;7.50;;
39176;SDS011;24904;52.208;21.192;2023-09-19T12:56:40;8.70;;;7.60;;
39176;SDS011;24904;52.208;21.192;2023-09-19T13:01:45;14.10;;;8.60;;
39176;SDS011;24904;52.208;21.192;2023-09-19T13:07:04;14.90;;;7.70;;
39176;SDS011;24904;52.208;21.192;2023-09-19T13:17:43;12.20;;;7.70;;
39176;SDS011;24904;52.208;21.192;2023-09-19T13:22:46;15.30;;;9.10;;
39176;SDS011;24904;52.208;21.192;2023-09-19T13:27:52;11.50;;;8.90;;
39176;SDS011;24904;52.208;21.192;2023-09-19T13:33:05;16.00;;;8.40;;
39176;SDS011;24904;52.208;21.192;2023-09-19T13:38:08;12.90;;;9.50;;
39176;SDS011;24904;52.208;21.192;2023-09-19T13:43:12;12.20;;;9.60;;
39176;SDS011;24904;52.208;21.192;2023-09-19T13:48:15;13.90;;;9.20;;
39176;SDS011;24904;52.208;21.192;2023-09-19T13:53:21;13.10;;;9.20;;
39176;SDS011;24904;52.208;21.192;2023-09-19T13:58:27;18.40;;;10.70;;
39176;SDS011;24904;52.208;21.192;2023-09-19T14:03:30;15.00;;;9.50;;
39176;SDS011;24904;52.208;21.192;2023-09-19T14:08:34;14.60;;;9.70;;
39176;SDS011;24904;52.208;21.192;2023-09-19T14:13:37;12.20;;;9.40;;
39176;SDS011;24904;52.208;21.192;2023-09-19T14:18:41;15.10;;;10.70;;
39176;SDS011;24904;52.208;21.192;2023-09-19T14:23:44;14.50;;;10.30;;
39176;SDS011;24904;52.208;21.192;2023-09-19T14:28:47;14.10;;;9.60;;
39176;SDS011;24904;52.208;21.192;2023-09-19T14:33:53;13.90;;;9.90;;
39176;SDS011;24904;52.208;21.192;2023-09-19T14:38:57;16.50;;;9.20;;
39176;SDS011;24904;52.208;21.192;2023-09-19T14:44:02;11.80;;;9.10;;
39176;SDS011;24904;52.208;21.192;2023-09-19T14:49:06;16.60;;;9.20;;
39176;SDS011;24904;52.208;21.192;2023-09-19T14:54:11;13.60;;;8.80;;
39176;SDS011;24904;52.208;21.192;2023-09-19T14:59:14;13.40;;;9.00;;
39176;SDS011;24904;52.208;21.192;2023-09-19T15:04:17;14.10;;;9.10;;
39176;SDS011;24904;52.208;21.192;2023-09-19T15:09:20;15.20;;;9.60;;
39176;SDS011;24904;52.208;21.192;2023-09-19T15:14:25;13.60;;;9.80;;
39176;SDS011;24904;52.208;21.192;2023-09-19T15:19:28;14.60;;;9.40;;
39176;SDS011;24904;52.208;21.192;2023-09-19T15:24:31;14.60;;;10.80;;
39176;SDS011;24904;52.208;21.192;2023-09-19T15:29:35;16.80;;;10.30;;
39176;SDS011;24904;52.208;21.192;2023-09-19T15:34:40;16.90;;;13.90;;
39176;SDS011;24904;52.208;21.192;2023-09-19T15:39:43;12.40;;;10.50;;
39176;SDS011;24904;52.208;21.192;2023-09-19T15:44:47;16.00;;;10.90;;
39176;SDS011;24904;52.208;21.192;2023-09-19T15:49:52;17.20;;;11.10;;
39176;SDS011;24904;52.208;21.192;2023-09-19T15:54:55;19.00;;;9.80;;
39176;SDS011;24904;52.208;21.192;2023-09-19T15:59:58;14.90;;;8.90;;
39176;SDS011;24904;52.208;21.192;2023-09-19T16:05:13;10.90;;;8.60;;
39176;SDS011;24904;52.208;21.192;2023-09-19T16:10:16;12.60;;;8.10;;
39176;SDS011;24904;52.208;21.192;2023-09-19T16:15:19;10.20;;;7.60;;
39176;SDS011;24904;52.208;21.192;2023-09-19T16:20:22;8.50;;;7.10;;
39176;SDS011;24904;52.208;21.192;2023-09-19T16:25:25;11.90;;;7.30;;
39176;SDS011;24904;52.208;21.192;2023-09-19T16:30:28;9.70;;;7.10;;
39176;SDS011;24904;52.208;21.192;2023-09-19T16:35:37;10.50;;;7.10;;
39176;SDS011;24904;52.208;21.192;2023-09-19T16:40:40;9.30;;;7.80;;
39176;SDS011;24904;52.208;21.192;2023-09-19T16:45:54;9.10;;;7.60;;
39176;SDS011;24904;52.208;21.192;2023-09-19T16:51:00;12.80;;;8.30;;
39176;SDS011;24904;52.208;21.192;2023-09-19T16:56:05;9.60;;;8.20;;
39176;SDS011;24904;52.208;21.192;2023-09-19T17:01:10;10.90;;;7.70;;
39176;SDS011;24904;52.208;21.192;2023-09-19T17:06:14;11.00;;;7.80;;
39176;SDS011;24904;52.208;21.192;2023-09-19T17:11:18;9.80;;;8.10;;
39176;SDS011;24904;52.208;21.192;2023-09-19T17:16:22;13.40;;;8.20;;
39176;SDS011;24904;52.208;21.192;2023-09-19T17:21:26;13.10;;;7.90;;
39176;SDS011;24904;52.208;21.192;2023-09-19T17:26:29;9.80;;;8.20;;
39176;SDS011;24904;52.208;21.192;2023-09-19T17:31:34;11.30;;;7.80;;
39176;SDS011;24904;52.208;21.192;2023-09-19T17:36:38;10.00;;;7.80;;
39176;SDS011;24904;52.208;21.192;2023-09-19T17:41:44;13.90;;;8.00;;
39176;SDS011;24904;52.208;21.192;2023-09-19T17:46:48;15.00;;;8.50;;
39176;SDS011;24904;52.208;21.192;2023-09-19T17:51:52;9.50;;;7.80;;
39176;SDS011;24904;52.208;21.192;2023-09-19T17:56:54;11.90;;;9.00;;
39176;SDS011;24904;52.208;21.192;2023-09-19T18:01:58;10.00;;;8.40;;
39176;SDS011;24904;52.208;21.192;2023-09-19T18:07:01;11.70;;;9.40;;
39176;SDS011;24904;52.208;21.192;2023-09-19T18:12:05;14.00;;;8.30;;
39176;SDS011;24904;52.208;21.192;2023-09-19T18:17:09;12.80;;;8.10;;
39176;SDS011;24904;52.208;21.192;2023-09-19T18:22:12;8.20;;;7.00;;
39176;SDS011;24904;52.208;21.192;2023-09-19T18:27:14;11.20;;;7.10;;
39176;SDS011;24904;52.208;21.192;2023-09-19T18:32:18;8.90;;;5.50;;
39176;SDS011;24904;52.208;21.192;2023-09-19T18:37:21;8.60;;;5.40;;
39176;SDS011;24904;52.208;21.192;2023-09-19T18:42:25;7.00;;;4.80;;
39176;SDS011;24904;52.208;21.192;2023-09-19T18:47:28;17.40;;;5.40;;
39176;SDS011;24904;52.208;21.192;2023-09-19T18:52:31;6.80;;;4.90;;
39176;SDS011;24904;52.208;21.192;2023-09-19T18:57:34;7.40;;;4.90;;
39176;SDS011;24904;52.208;21.192;2023-09-19T19:02:37;13.60;;;5.40;;
39176;SDS011;24904;52.208;21.192;2023-09-19T19:07:40;12.70;;;5.20;;
39176;SDS011;24904;52.208;21.192;2023-09-19T19:12:43;8.30;;;5.30;;
39176;SDS011;24904;52.208;21.192;2023-09-19T19:17:47;7.80;;;4.60;;
39176;SDS011;24904;52.208;21.192;2023-09-19T19:22:50;7.60;;;4.90;;
39176;SDS011;24904;52.208;21.192;2023-09-19T19:27:53;8.80;;;4.80;;
39176;SDS011;24904;52.208;21.192;2023-09-19T19:32:56;10.10;;;4.50;;
39176;SDS011;24904;52.208;21.192;2023-09-19T19:37:59;12.30;;;4.00;;
39176;SDS011;24904;52.208;21.192;2023-09-19T19:43:02;6.20;;;3.60;;
39176;SDS011;24904;52.208;21.192;2023-09-19T19:48:06;7.10;;;3.10;;
39176;SDS011;24904;52.208;21.192;2023-09-19T19:53:10;7.20;;;3.90;;
39176;SDS011;24904;52.208;21.192;2023-09-19T19:58:13;9.30;;;3.90;;
39176;SDS011;24904;52.208;21.192;2023-09-19T20:03:16;6.60;;;3.70;;
39176;SDS011;24904;52.208;21.192;2023-09-19T20:08:19;9.90;;;3.60;;
39176;SDS011;24904;52.208;21.192;2023-09-19T20:13:23;12.90;;;4.30;;
39176;SDS011;24904;52.208;21.192;2023-09-19T20:18:26;13.10;;;5.00;;
39176;SDS011;24904;52.208;21.192;2023-09-19T20:23:30;6.70;;;4.30;;
39176;SDS011;24904;52.208;21.192;2023-09-19T20:28:33;9.40;;;3.90;;
39176;SDS011;24904;52.208;21.192;2023-09-19T20:33:39;10.60;;;4.60;;
39176;SDS011;24904;52.208;21.192;2023-09-19T20:38:42;9.70;;;4.40;;
39176;SDS011;24904;52.208;21.192;2023-09-19T20:43:45;10.20;;;4.10;;
39176;SDS011;24904;52.208;21.192;2023-09-19T20:48:48;10.00;;;4.50;;
39176;SDS011;24904;52.208;21.192;2023-09-19T20:53:52;9.70;;;4.10;;
39176;SDS011;24904;52.208;21.192;2023-09-19T20:58:57;6.60;;;3.70;;
39176;SDS011;24904;52.208;21.192;2023-09-19T21:04:01;14.20;;;4.60;;
39176;SDS011;24904;52.208;21.192;2023-09-19T21:09:05;9.00;;;4.10;;
39176;SDS011;24904;52.208;21.192;2023-09-19T21:14:09;10.40;;;3.90;;
39176;SDS011;24904;52.208;21.192;2023-09-19T21:19:12;9.60;;;4.20;;
39176;SDS011;24904;52.208;21.192;2023-09-19T21:30:28;7.80;;;4.00;;
39176;SDS011;24904;52.208;21.192;2023-09-19T21:35:31;11.30;;;4.60;;
39176;SDS011;24904;52.208;21.192;2023-09-19T21:40:34;11.50;;;4.80;;
39176;SDS011;24904;52.208;21.192;2023-09-19T21:45:37;13.00;;;5.70;;
39176;SDS011;24904;52.208;21.192;2023-09-19T21:50:40;16.70;;;5.60;;
39176;SDS011;24904;52.208;21.192;2023-09-19T21:55:58;10.70;;;5.90;;
39176;SDS011;24904;52.208;21.192;2023-09-19T22:01:02;13.10;;;6.00;;
39176;SDS011;24904;52.208;21.192;2023-09-19T22:06:08;9.80;;;6.10;;
39176;SDS011;24904;52.208;21.192;2023-09-19T22:11:14;12.50;;;5.80;;
39176;SDS011;24904;52.208;21.192;2023-09-19T22:16:18;10.70;;;5.50;;
39176;SDS011;24904;52.208;21.192;2023-09-19T22:21:22;10.50;;;5.50;;
39176;SDS011;24904;52.208;21.192;2023-09-19T22:26:33;9.40;;;5.40;;
39176;SDS011;24904;52.208;21.192;2023-09-19T22:31:39;12.60;;;5.20;;
39176;SDS011;24904;52.208;21.192;2023-09-19T22:44:53;8.80;;;5.20;;
39176;SDS011;24904;52.208;21.192;2023-09-19T23:02:37;8.50;;;5.20;;
39176;SDS011;24904;52.208;21.192;2023-09-19T23:07:43;9.00;;;5.20;;
39176;SDS011;24904;52.208;21.192;2023-09-19T23:12:55;10.30;;;5.60;;
39176;SDS011;24904;52.208;21.192;2023-09-19T23:18:01;8.20;;;5.30;;
39176;SDS011;24904;52.208;21.192;2023-09-19T23:23:12;11.30;;;5.20;;
39176;SDS011;24904;52.208;21.192;2023-09-19T23:28:19;13.00;;;5.70;;
39176;SDS011;24904;52.208;21.192;2023-09-19T23:33:25;12.80;;;5.20;;
39176;SDS011;24904;52.208;21.192;2023-09-19T23:38:32;7.50;;;4.60;;
39176;SDS011;24904;52.208;21.192;2023-09-19T23:43:39;9.90;;;4.80;;
39176;SDS011;24904;52.208;21.192;2023-09-19T23:48:44;6.60;;;4.60;;
39176;SDS011;24904;52.208;21.192;2023-09-19T23:53:49;8.80;;;4.50;;
39176;SDS011;24904;52.208;21.192;2023-09-19T23:58:54;8.60;;;4.50;;
